Time;durP1;ratioP1;P1;durP2;ratioP2;P2;SDS_P1;SDS_P2;PMS_P1;PMS_P2;Temp;Humidity;BMP_temperature;BMP_pressure;BME280_temperature;BME280_humidity;BME280_pressure;Samples;Min_cycle;Max_cycle;Signal;HPM_P1;HPM_P2
2021/06/27 00:02:02;;;;;;;;;;;16.30;99.90;;;;;;4844849;29;19982;-78
2021/06/27 00:04:29;;;;;;;;;;;16.30;99.90;;;;;;4844810;29;19928;-77
2021/06/27 00:06:55;;;;;;;;;;;16.30;99.90;;;;;;4844809;29;20018;-78
2021/06/27 00:09:28;;;;;;;;;;;16.20;99.90;;;;;;4844734;29;19934;-78
2021/06/27 00:12:01;;;;;;;;;;;16.20;99.90;;;;;;4845200;29;19928;-78
2021/06/27 00:14:28;;;;;;;;;;;16.30;99.90;;;;;;4844688;29;20390;-78
2021/06/27 00:16:55;;;;;;;;;;;16.20;99.90;;;;;;4844654;29;19928;-78
2021/06/27 00:19:22;;;;;;;;;;;16.20;99.90;;;;;;4844932;29;20374;-77
2021/06/27 00:21:49;;;;;;;;;;;16.10;99.90;;;;;;4844440;29;20023;-79
2021/06/27 00:24:16;;;;;;;;;;;16.10;99.90;;;;;;4844706;29;20027;-78
2021/06/27 00:26:43;;;;;;;;;;;16.10;99.90;;;;;;4844662;29;20031;-78
2021/06/27 00:29:10;;;;;;;;;;;16.10;99.90;;;;;;4844559;29;19928;-78
2021/06/27 00:31:36;;;;;;;;;;;16.10;99.90;;;;;;4843944;29;20042;-78
2021/06/27 00:34:08;;;;;;;;;;;16.00;99.90;;;;;;4845119;29;19934;-78
2021/06/27 00:36:34;;;;;;;;;;;16.00;99.90;;;;;;4844436;29;19935;-78
2021/06/27 00:39:06;;;;;;;;;;;16.00;99.90;;;;;;4844313;29;19928;-78
2021/06/27 00:41:33;;;;;;;;;;;16.00;99.90;;;;;;4844197;29;19932;-78
2021/06/27 00:44:00;;;;;;;;;;;16.00;99.90;;;;;;4844251;29;19928;-78
2021/06/27 00:46:27;;;;;;;;;;;15.90;99.90;;;;;;4844156;29;19934;-78
2021/06/27 00:48:58;;;;;;;;;;;15.90;99.90;;;;;;4845059;29;19932;-77
2021/06/27 00:51:25;;;;;;;;;;;16.00;99.90;;;;;;4844000;29;19959;-78
2021/06/27 00:53:52;;;;;;;;;;;16.00;99.90;;;;;;4860921;29;19928;-78
2021/06/27 00:56:19;;;;;;;;;;;15.90;99.90;;;;;;4844298;29;20007;-79
2021/06/27 00:58:46;;;;;;;;;;;15.90;99.90;;;;;;4844314;29;20015;-78
2021/06/27 01:01:12;;;;;;;;;;;15.80;99.90;;;;;;4859070;29;20384;-78
2021/06/27 01:03:44;;;;;;;;;;;15.70;99.90;;;;;;4860411;29;19928;-78
2021/06/27 01:06:11;;;;;;;;;;;15.70;99.90;;;;;;4843686;29;19928;-78
2021/06/27 01:08:42;;;;;;;;;;;15.70;99.90;;;;;;4843759;29;20292;-77
2021/06/27 01:11:14;;;;;;;;;;;15.70;99.90;;;;;;4843728;29;19935;-80
2021/06/27 01:13:42;;;;;;;;;;;15.70;99.90;;;;;;4843845;29;19991;-78
2021/06/27 01:16:09;;;;;;;;;;;15.70;99.90;;;;;;4843705;29;19934;-78
2021/06/27 01:18:36;;;;;;;;;;;15.70;99.90;;;;;;4843493;29;20370;-78
2021/06/27 01:21:04;;;;;;;;;;;15.70;99.90;;;;;;4843607;29;19935;-78
2021/06/27 01:23:36;;;;;;;;;;;15.70;99.90;;;;;;4859244;29;19934;-78
2021/06/27 01:26:08;;;;;;;;;;;15.70;99.90;;;;;;4843871;29;19934;-78
2021/06/27 01:28:39;;;;;;;;;;;15.70;99.90;;;;;;4844398;29;20376;-79
2021/06/27 01:31:06;;;;;;;;;;;15.60;99.90;;;;;;4843779;29;19928;-78
2021/06/27 01:33:38;;;;;;;;;;;15.60;99.90;;;;;;4844107;29;20019;-78
2021/06/27 01:36:10;;;;;;;;;;;15.60;99.90;;;;;;4843860;29;20545;-78
2021/06/27 01:38:36;;;;;;;;;;;15.60;99.90;;;;;;4847023;29;20391;-78
2021/06/27 01:41:08;;;;;;;;;;;15.60;99.90;;;;;;4848100;29;20410;-78
2021/06/27 01:43:35;;;;;;;;;;;15.50;99.90;;;;;;4846964;29;19939;-78
2021/06/27 01:46:02;;;;;;;;;;;15.50;99.90;;;;;;4862641;29;19928;-78
2021/06/27 01:48:30;;;;;;;;;;;15.50;99.90;;;;;;4847795;29;19963;-79
2021/06/27 01:50:57;;;;;;;;;;;15.50;99.90;;;;;;4847492;29;19928;-78
2021/06/27 01:53:25;;;;;;;;;;;15.50;99.90;;;;;;4847594;29;20023;-78
2021/06/27 01:56:04;;;;;;;;;;;15.50;99.90;;;;;;4847496;29;19935;-78
2021/06/27 01:58:50;;;;;;;;;;;15.50;99.90;;;;;;4847226;29;20052;-78
2021/06/27 02:01:23;;;;;;;;;;;15.50;99.90;;;;;;4846924;29;19948;-79
2021/06/27 02:03:50;;;;;;;;;;;15.50;99.90;;;;;;4846939;29;20472;-78
2021/06/27 02:06:22;;;;;;;;;;;15.50;99.90;;;;;;4832485;29;19935;-78
2021/06/27 02:08:50;;;;;;;;;;;15.40;99.90;;;;;;4862770;29;20027;-78
2021/06/27 02:11:23;;;;;;;;;;;15.40;99.90;;;;;;4832464;29;19934;-78
2021/06/27 02:13:50;;;;;;;;;;;15.40;99.90;;;;;;4847759;29;19928;-78
2021/06/27 02:16:21;;;;;;;;;;;15.30;99.90;;;;;;4832307;29;20021;-78
2021/06/27 02:18:49;;;;;;;;;;;15.30;99.90;;;;;;4862592;29;20022;-78
2021/06/27 02:21:18;;;;;;;;;;;15.30;99.90;;;;;;4846936;29;19995;-78
2021/06/27 02:23:50;;;;;;;;;;;15.20;99.90;;;;;;4847081;29;19928;-78
2021/06/27 02:26:17;;;;;;;;;;;15.20;99.90;;;;;;4847332;29;19978;-78
2021/06/27 02:28:49;;;;;;;;;;;15.30;99.90;;;;;;4862749;29;20243;-77
2021/06/27 02:31:16;;;;;;;;;;;15.30;99.90;;;;;;4846766;29;19928;-78
2021/06/27 02:33:43;;;;;;;;;;;15.20;99.90;;;;;;4846588;29;19928;-78
2021/06/27 02:36:15;;;;;;;;;;;15.20;99.90;;;;;;4846874;29;20388;-78
2021/06/27 02:38:42;;;;;;;;;;;15.10;99.90;;;;;;4846875;29;19967;-78
2021/06/27 02:41:09;;;;;;;;;;;15.10;99.90;;;;;;4831380;29;20361;-78
2021/06/27 02:43:36;;;;;;;;;;;15.10;99.90;;;;;;4861857;29;19972;-77
2021/06/27 02:46:03;;;;;;;;;;;15.10;99.90;;;;;;4845772;29;20362;-78
2021/06/27 02:48:29;;;;;;;;;;;15.10;99.90;;;;;;4862174;29;19929;-78
2021/06/27 02:50:56;;;;;;;;;;;15.00;99.90;;;;;;4846376;29;20018;-78
2021/06/27 02:53:28;;;;;;;;;;;15.00;99.90;;;;;;4846447;29;19934;-78
2021/06/27 02:56:07;;;;;;;;;;;14.90;99.90;;;;;;4846048;29;19959;-78
2021/06/27 02:58:38;;;;;;;;;;;14.90;99.90;;;;;;4846273;29;19932;-78
2021/06/27 03:01:05;;;;;;;;;;;14.90;99.90;;;;;;4846166;29;20012;-77
2021/06/27 03:03:32;;;;;;;;;;;14.90;99.90;;;;;;4846346;29;20030;-78
2021/06/27 03:06:04;;;;;;;;;;;14.90;99.90;;;;;;4846331;29;19967;-77
2021/06/27 03:08:31;;;;;;;;;;;14.90;99.90;;;;;;4845849;29;19928;-78
2021/06/27 03:10:58;;;;;;;;;;;14.90;99.90;;;;;;4831022;29;20459;-78
2021/06/27 03:13:25;;;;;;;;;;;14.90;99.90;;;;;;4846448;29;20034;-78
2021/06/27 03:15:52;;;;;;;;;;;14.90;99.90;;;;;;4846088;29;20027;-80
2021/06/27 03:18:19;;;;;;;;;;;14.90;99.90;;;;;;4861166;29;19968;-78
2021/06/27 03:20:46;;;;;;;;;;;14.90;99.90;;;;;;4846124;29;19950;-78
2021/06/27 03:23:17;;;;;;;;;;;14.90;99.90;;;;;;4861147;29;19939;-78
2021/06/27 03:25:44;;;;;;;;;;;14.80;99.90;;;;;;4845906;29;20362;-78
2021/06/27 03:28:10;;;;;;;;;;;14.80;99.90;;;;;;4846202;29;19934;-78
2021/06/27 03:30:37;;;;;;;;;;;14.80;99.90;;;;;;4861093;29;19928;-79
2021/06/27 03:33:10;;;;;;;;;;;14.80;99.90;;;;;;4845479;29;20021;-79
2021/06/27 03:35:37;;;;;;;;;;;14.80;99.90;;;;;;4860526;29;19928;-78
2021/06/27 03:38:17;;;;;;;;;;;14.80;99.90;;;;;;4861281;29;19935;-78
2021/06/27 03:40:51;;;;;;;;;;;14.80;99.90;;;;;;4845265;29;20380;-78
2021/06/27 03:43:23;;;;;;;;;;;14.80;99.90;;;;;;4862516;29;19928;-78
2021/06/27 03:45:50;;;;;;;;;;;14.80;99.90;;;;;;4845670;29;19980;-79
2021/06/27 03:48:17;;;;;;;;;;;14.90;99.90;;;;;;4845462;29;20347;-78
2021/06/27 03:50:48;;;;;;;;;;;14.90;99.90;;;;;;4845738;29;19928;-79
2021/06/27 03:53:15;;;;;;;;;;;14.90;99.90;;;;;;4845361;29;20353;-78
2021/06/27 03:55:43;;;;;;;;;;;15.00;99.90;;;;;;4845451;29;19971;-79
2021/06/27 03:58:12;;;;;;;;;;;15.00;99.90;;;;;;4845406;29;20019;-77
2021/06/27 04:00:39;;;;;;;;;;;15.00;99.90;;;;;;4844704;29;20402;-78
2021/06/27 04:03:05;;;;;;;;;;;15.00;99.90;;;;;;4844816;29;19966;-79
2021/06/27 04:05:32;;;;;;;;;;;15.00;99.90;;;;;;4861539;29;20019;-77
2021/06/27 04:07:59;;;;;;;;;;;15.10;99.90;;;;;;4845141;29;20022;-78
2021/06/27 04:10:32;;;;;;;;;;;15.10;99.90;;;;;;4845067;29;19928;-77
2021/06/27 04:12:59;;;;;;;;;;;15.20;99.90;;;;;;4829578;29;19928;-78
2021/06/27 04:15:27;;;;;;;;;;;15.20;99.90;;;;;;4844918;29;20030;-77
2021/06/27 04:17:59;;;;;;;;;;;15.30;99.90;;;;;;4844781;29;20407;-77
2021/06/27 04:20:26;;;;;;;;;;;15.30;99.90;;;;;;4844859;29;20034;-77
2021/06/27 04:22:53;;;;;;;;;;;15.40;99.90;;;;;;4844570;29;19992;-78
2021/06/27 04:25:19;;;;;;;;;;;15.40;99.90;;;;;;4844524;29;20448;-78
2021/06/27 04:27:46;;;;;;;;;;;15.30;99.90;;;;;;4844675;29;19939;-78
2021/06/27 04:30:18;;;;;;;;;;;15.30;99.90;;;;;;4844865;29;20384;-78
2021/06/27 04:32:45;;;;;;;;;;;15.30;99.90;;;;;;4844373;29;19979;-77
2021/06/27 04:35:11;;;;;;;;;;;15.30;99.90;;;;;;4844674;29;20396;-79
2021/06/27 04:37:39;;;;;;;;;;;15.30;99.90;;;;;;4844311;29;19928;-77
2021/06/27 04:40:07;;;;;;;;;;;15.40;99.90;;;;;;4844392;29;20391;-77
2021/06/27 04:42:34;;;;;;;;;;;15.40;99.90;;;;;;4859794;29;19950;-79
2021/06/27 04:45:05;;;;;;;;;;;15.40;99.90;;;;;;4837279;29;19955;-78
2021/06/27 04:47:33;;;;;;;;;;;15.40;99.90;;;;;;4844535;29;20023;-78
2021/06/27 04:50:07;;;;;;;;;;;15.40;99.90;;;;;;4844444;29;20392;-77
2021/06/27 04:52:34;;;;;;;;;;;15.40;99.90;;;;;;4837836;29;20027;-77
2021/06/27 04:55:06;;;;;;;;;;;15.50;99.90;;;;;;4837446;29;19932;-77
2021/06/27 04:57:38;;;;;;;;;;;15.50;99.90;;;;;;4860793;29;19928;-77
2021/06/27 05:00:06;;;;;;;;;;;15.50;99.90;;;;;;4844227;29;20467;-77
2021/06/27 05:02:38;;;;;;;;;;;15.60;99.90;;;;;;4859918;29;19928;-79
2021/06/27 05:05:10;;;;;;;;;;;15.60;99.90;;;;;;4844128;29;19928;-80
2021/06/27 05:07:37;;;;;;;;;;;15.60;99.90;;;;;;4845554;29;19999;-78
2021/06/27 05:10:05;;;;;;;;;;;15.60;99.90;;;;;;4845103;29;19928;-78
2021/06/27 05:12:32;;;;;;;;;;;15.60;99.90;;;;;;4846240;29;19928;-78
2021/06/27 05:15:04;;;;;;;;;;;15.70;99.90;;;;;;4849361;29;20031;-78
2021/06/27 05:17:37;;;;;;;;;;;15.60;99.90;;;;;;4848719;29;19934;-78
2021/06/27 05:20:05;;;;;;;;;;;15.70;99.90;;;;;;4862428;29;19967;-77
2021/06/27 05:22:32;;;;;;;;;;;15.70;99.90;;;;;;4847661;29;19928;-78
2021/06/27 05:25:04;;;;;;;;;;;15.80;99.90;;;;;;4847628;29;20384;-79
2021/06/27 05:27:30;;;;;;;;;;;16.00;99.90;;;;;;4832433;29;20311;-77
2021/06/27 05:30:03;;;;;;;;;;;16.10;99.90;;;;;;4847524;29;19934;-78
2021/06/27 05:32:30;;;;;;;;;;;16.20;99.90;;;;;;4848235;29;19971;-78
2021/06/27 05:34:57;;;;;;;;;;;16.30;99.90;;;;;;4848193;29;19936;-79
2021/06/27 05:37:29;;;;;;;;;;;16.30;99.90;;;;;;4848334;29;20019;-78
2021/06/27 05:40:02;;;;;;;;;;;16.40;99.90;;;;;;4848441;29;19928;-78
2021/06/27 05:42:29;;;;;;;;;;;16.40;99.90;;;;;;4847345;29;20042;-78
2021/06/27 05:45:01;;;;;;;;;;;16.40;99.90;;;;;;4847888;29;19928;-78
2021/06/27 05:47:27;;;;;;;;;;;16.40;99.90;;;;;;4847083;29;19928;-79
2021/06/27 05:49:55;;;;;;;;;;;16.50;99.90;;;;;;4846870;29;19928;-79
2021/06/27 05:52:22;;;;;;;;;;;16.50;99.90;;;;;;4846639;29;19979;-79
2021/06/27 05:54:49;;;;;;;;;;;16.50;99.90;;;;;;4876959;29;20395;-79
2021/06/27 05:57:22;;;;;;;;;;;16.60;99.90;;;;;;4865439;29;20627;-78
2021/06/27 05:59:49;;;;;;;;;;;16.60;99.90;;;;;;4865671;29;19967;-79
2021/06/27 06:02:16;;;;;;;;;;;16.60;99.90;;;;;;4862945;29;20383;-78
2021/06/27 06:04:48;;;;;;;;;;;16.70;99.90;;;;;;4831196;29;19936;-78
2021/06/27 06:07:15;;;;;;;;;;;16.70;99.90;;;;;;4863017;29;20399;-77
2021/06/27 06:09:47;;;;;;;;;;;16.70;99.90;;;;;;4863223;29;19929;-77
2021/06/27 06:12:14;;;;;;;;;;;16.80;99.90;;;;;;4862077;29;19967;-77
2021/06/27 06:14:46;;;;;;;;;;;16.90;99.90;;;;;;4863759;29;19928;-78
2021/06/27 06:17:12;;;;;;;;;;;16.80;99.90;;;;;;4847183;29;19960;-78
2021/06/27 06:19:40;;;;;;;;;;;16.90;99.90;;;;;;4861227;29;19958;-78
2021/06/27 06:22:07;;;;;;;;;;;16.90;99.90;;;;;;4848698;29;20051;-77
2021/06/27 06:24:34;;;;;;;;;;;17.10;99.90;;;;;;4847872;29;19928;-76
2021/06/27 06:27:00;;;;;;;;;;;17.10;99.90;;;;;;4864714;29;19967;-78
2021/06/27 06:29:27;;;;;;;;;;;17.20;99.90;;;;;;4866078;29;19928;-78
2021/06/27 06:32:00;;;;;;;;;;;17.20;99.90;;;;;;4881514;29;19928;-77
2021/06/27 06:34:28;;;;;;;;;;;17.30;99.90;;;;;;4865932;29;19928;-78
2021/06/27 06:37:01;;;;;;;;;;;17.40;99.90;;;;;;4864949;29;19935;-77
2021/06/27 06:39:33;;;;;;;;;;;17.40;99.90;;;;;;4865580;29;19928;-78
2021/06/27 06:41:59;;;;;;;;;;;17.40;99.90;;;;;;4864781;29;20137;-79
2021/06/27 06:44:27;;;;;;;;;;;17.40;99.90;;;;;;4865456;29;19959;-78
2021/06/27 06:46:54;;;;;;;;;;;17.50;99.90;;;;;;4865457;29;20018;-77
2021/06/27 06:49:21;;;;;;;;;;;17.50;99.90;;;;;;4882077;29;20027;-77
2021/06/27 06:51:52;;;;;;;;;;;17.50;99.90;;;;;;4864521;29;19928;-78
2021/06/27 06:54:19;;;;;;;;;;;17.50;99.90;;;;;;4864945;29;19934;-78
2021/06/27 06:56:51;;;;;;;;;;;17.60;99.90;;;;;;4865049;29;19928;-78
2021/06/27 06:59:17;;;;;;;;;;;17.60;99.90;;;;;;4865486;29;20030;-77
2021/06/27 07:01:44;;;;;;;;;;;17.70;99.90;;;;;;4864227;29;20407;-78
2021/06/27 07:04:11;;;;;;;;;;;17.70;99.90;;;;;;4848794;29;19987;-79
2021/06/27 07:06:37;;;;;;;;;;;17.80;99.90;;;;;;4864372;29;20030;-77
2021/06/27 07:09:04;;;;;;;;;;;17.90;99.90;;;;;;4864352;29;19963;-78
2021/06/27 07:11:36;;;;;;;;;;;17.90;99.90;;;;;;4863716;29;19938;-78
2021/06/27 07:14:07;;;;;;;;;;;18.00;99.90;;;;;;4864022;29;19935;-79
2021/06/27 07:16:34;;;;;;;;;;;18.10;99.90;;;;;;4864336;29;20307;-78
2021/06/27 07:19:01;;;;;;;;;;;18.30;99.90;;;;;;4863967;29;19978;-79
2021/06/27 07:21:28;;;;;;;;;;;18.40;99.90;;;;;;4865657;29;19934;-82
2021/06/27 07:30:25;;;;;;;;;;;18.70;99.90;;;;;;5655575;23;19952;-82
2021/06/27 07:32:52;;;;;;;;;;;18.80;99.90;;;;;;4891923;29;20397;-82
2021/06/27 07:41:13;;;;;;;;;;;19.10;99.90;;;;;;4848540;29;19935;-82
2021/06/27 07:43:48;;;;;;;;;;;19.30;99.90;;;;;;4850064;29;20027;-82
2021/06/27 07:49:34;;;;;;;;;;;19.40;99.90;;;;;;5852787;23;19934;-81
2021/06/27 07:52:11;;;;;;;;;;;19.60;99.90;;;;;;4928753;29;19926;-82
2021/06/27 07:57:39;;;;;;;;;;;19.80;99.90;;;;;;5213470;23;19977;-80
2021/06/27 08:00:11;;;;;;;;;;;19.90;99.90;;;;;;4950646;29;19961;-80
2021/06/27 08:02:39;;;;;;;;;;;20.00;99.90;;;;;;4951550;29;19931;-81
2021/06/27 08:05:06;;;;;;;;;;;20.10;99.90;;;;;;4947601;29;19927;-81
2021/06/27 08:07:32;;;;;;;;;;;20.30;99.90;;;;;;4947250;29;19932;-81
2021/06/27 08:09:59;;;;;;;;;;;20.40;99.90;;;;;;4933402;29;19930;-81
2021/06/27 08:12:26;;;;;;;;;;;20.50;99.90;;;;;;4934212;29;19926;-81
2021/06/27 08:14:58;;;;;;;;;;;20.60;99.90;;;;;;4946331;29;19937;-81
2021/06/27 08:17:25;;;;;;;;;;;20.70;99.90;;;;;;4948255;29;19926;-81
2021/06/27 08:19:52;;;;;;;;;;;20.90;99.90;;;;;;4932861;29;19930;-81
2021/06/27 08:22:24;;;;;;;;;;;20.90;99.90;;;;;;4931352;29;20018;-81
2021/06/27 08:24:52;;;;;;;;;;;21.00;99.90;;;;;;4949324;29;21569;-81
2021/06/27 08:27:19;;;;;;;;;;;21.20;99.90;;;;;;4949643;29;19933;-81
2021/06/27 08:29:46;;;;;;;;;;;21.30;99.90;;;;;;4936519;29;20403;-81
2021/06/27 08:36:13;;;;;;;;;;;21.50;99.90;;;;;;4962052;29;19924;-81
2021/06/27 08:38:40;;;;;;;;;;;21.70;99.90;;;;;;4956030;29;19926;-81
2021/06/27 08:41:07;;;;;;;;;;;21.80;99.90;;;;;;4937668;29;19933;-81
2021/06/27 08:43:35;;;;;;;;;;;21.90;99.90;;;;;;4949874;29;19934;-81
2021/06/27 08:46:07;;;;;;;;;;;22.00;99.90;;;;;;4951158;29;19930;-81
2021/06/27 08:48:35;;;;;;;;;;;22.10;99.90;;;;;;4933465;29;19986;-81
2021/06/27 08:51:02;;;;;;;;;;;22.20;99.90;;;;;;4953773;29;19957;-81
2021/06/27 08:53:31;;;;;;;;;;;22.40;99.90;;;;;;4953964;29;19974;-81
2021/06/27 08:56:05;;;;;;;;;;;22.50;99.90;;;;;;4972698;29;19962;-81
2021/06/27 08:58:32;;;;;;;;;;;22.60;99.90;;;;;;4958870;28;19957;-81
2021/06/27 09:01:07;;;;;;;;;;;22.70;99.90;;;;;;4943865;29;19922;-81
2021/06/27 09:03:34;;;;;;;;;;;22.80;99.90;;;;;;4954926;29;19950;-81
2021/06/27 09:06:01;;;;;;;;;;;22.90;99.90;;;;;;4954040;29;19927;-81
2021/06/27 09:08:29;;;;;;;;;;;23.00;99.90;;;;;;4953514;29;20049;-81
2021/06/27 09:11:10;;;;;;;;;;;23.00;99.90;;;;;;4937716;29;20029;-79
2021/06/27 09:13:40;;;;;;;;;;;23.20;99.90;;;;;;4921554;29;19927;-79
2021/06/27 09:16:23;;;;;;;;;;;23.30;99.90;;;;;;4922112;29;20465;-76
2021/06/27 09:18:59;;;;;;;;;;;23.40;99.90;;;;;;4921594;29;19926;-78
2021/06/27 09:21:31;;;;;;;;;;;23.40;99.90;;;;;;4936759;29;20439;-78
2021/06/27 09:23:57;;;;;;;;;;;23.40;99.90;;;;;;4921701;29;19934;-80
2021/06/27 09:26:32;;;;;;;;;;;23.60;99.90;;;;;;4940137;29;20033;-81
2021/06/27 09:28:59;;;;;;;;;;;23.70;99.90;;;;;;4926341;29;19988;-80
2021/06/27 09:31:40;;;;;;;;;;;23.80;99.90;;;;;;4935016;29;19926;-80
2021/06/27 09:34:13;;;;;;;;;;;23.80;99.90;;;;;;4925876;29;19981;-79
2021/06/27 10:33:14;;;;;;;;;;;25.70;99.90;;;;;;4974914;28;19934;-79
2021/06/27 10:41:19;;;;;;;;;;;26.20;99.90;;;;;;4904456;29;19963;-78
2021/06/27 10:44:12;;;;;;;;;;;26.20;99.90;;;;;;4919392;29;19927;-78
2021/06/27 10:46:39;;;;;;;;;;;26.30;99.90;;;;;;4867004;29;19931;-78
2021/06/27 10:49:07;;;;;;;;;;;26.40;99.90;;;;;;4932364;29;19928;-78
2021/06/27 10:51:52;;;;;;;;;;;26.40;99.90;;;;;;4900637;29;19931;-78
2021/06/27 10:54:24;;;;;;;;;;;26.50;99.90;;;;;;4899869;29;19983;-79
2021/06/27 10:56:52;;;;;;;;;;;26.70;99.90;;;;;;4900579;29;19971;-78
2021/06/27 10:59:38;;;;;;;;;;;26.80;99.90;;;;;;4900560;29;19937;-78
2021/06/27 11:02:24;;;;;;;;;;;26.80;99.90;;;;;;4900127;29;19934;-79
2021/06/27 11:07:47;;;;;;;;;;;27.10;99.90;;;;;;5190960;23;19966;-78
2021/06/27 11:10:20;;;;;;;;;;;27.10;99.90;;;;;;4952069;28;19927;-79
2021/06/27 11:15:24;;;;;;;;;;;27.20;99.90;;;;;;4961924;23;19927;-78
2021/06/27 11:17:51;;;;;;;;;;;27.20;99.90;;;;;;4921579;29;19955;-79
2021/06/27 11:20:24;;;;;;;;;;;27.20;99.90;;;;;;4921031;29;20034;-82
2021/06/27 11:22:51;;;;;;;;;;;27.40;99.90;;;;;;4921078;29;20313;-79
2021/06/27 11:25:33;;;;;;;;;;;27.50;98.90;;;;;;4934360;29;19927;-79
2021/06/27 11:28:26;;;;;;;;;;;27.60;98.90;;;;;;4939975;29;20025;-79
2021/06/27 11:30:54;;;;;;;;;;;27.80;98.00;;;;;;4939666;29;20409;-80
2021/06/27 11:33:22;;;;;;;;;;;27.90;95.70;;;;;;4940099;29;19949;-80
2021/06/27 11:35:50;;;;;;;;;;;27.80;96.50;;;;;;4942109;29;19981;-80
2021/06/27 11:38:36;;;;;;;;;;;27.80;97.40;;;;;;4941140;29;20337;-79
2021/06/27 11:41:04;;;;;;;;;;;27.90;94.10;;;;;;4944133;29;20005;-86
2021/06/27 11:43:49;;;;;;;;;;;27.90;95.70;;;;;;4948859;29;20309;-83
2021/06/27 11:46:29;;;;;;;;;;;27.90;96.20;;;;;;4950110;29;19980;-82
2021/06/27 11:48:56;;;;;;;;;;;28.00;94.20;;;;;;4954378;29;20303;-83
2021/06/27 11:51:36;;;;;;;;;;;28.10;95.20;;;;;;4943732;29;20034;-83
2021/06/27 11:54:09;;;;;;;;;;;28.20;93.90;;;;;;4934898;28;19997;-84
2021/06/27 11:56:53;;;;;;;;;;;28.40;93.50;;;;;;4950661;29;20376;-82
2021/06/27 11:59:36;;;;;;;;;;;28.50;92.30;;;;;;4945301;29;20365;-84
2021/06/27 12:02:08;;;;;;;;;;;28.70;91.40;;;;;;4944486;29;20025;-83
2021/06/27 12:04:37;;;;;;;;;;;28.70;90.20;;;;;;4938744;29;19954;-84
2021/06/27 12:07:28;;;;;;;;;;;28.70;83.80;;;;;;4914341;29;19931;-84
2021/06/27 12:09:55;;;;;;;;;;;28.60;82.60;;;;;;4926936;29;19931;-84
2021/06/27 12:12:42;;;;;;;;;;;28.70;86.30;;;;;;4910740;29;19994;-85
2021/06/27 12:15:15;;;;;;;;;;;28.70;84.40;;;;;;4912226;29;19958;-83
2021/06/27 12:17:42;;;;;;;;;;;28.80;87.10;;;;;;4908568;29;19986;-84
2021/06/27 12:20:15;;;;;;;;;;;28.90;86.10;;;;;;4909421;29;19931;-84
2021/06/27 12:22:49;;;;;;;;;;;28.80;84.90;;;;;;4924541;29;19926;-84
2021/06/27 12:25:47;;;;;;;;;;;28.80;85.10;;;;;;4908849;29;19933;-85
2021/06/27 12:28:33;;;;;;;;;;;28.80;84.40;;;;;;4938428;29;20449;-84
2021/06/27 12:31:05;;;;;;;;;;;28.80;87.40;;;;;;4923424;29;19962;-83
2021/06/27 12:33:36;;;;;;;;;;;28.70;85.60;;;;;;4924074;29;20415;-85
2021/06/27 12:36:05;;;;;;;;;;;28.60;81.60;;;;;;4923737;29;19934;-84
2021/06/27 12:38:38;;;;;;;;;;;28.40;84.30;;;;;;4929589;29;20009;-85
2021/06/27 12:41:05;;;;;;;;;;;28.30;85.20;;;;;;4926041;29;20033;-83
2021/06/27 12:43:35;;;;;;;;;;;28.10;87.30;;;;;;4942812;29;19961;-82
2021/06/27 12:46:18;;;;;;;;;;;28.00;87.30;;;;;;4944004;29;20033;-85
2021/06/27 12:48:46;;;;;;;;;;;28.10;86.70;;;;;;4930090;29;19926;-83
2021/06/27 12:51:24;;;;;;;;;;;28.30;82.70;;;;;;4944720;29;19926;-84
2021/06/27 12:54:01;;;;;;;;;;;28.60;80.40;;;;;;4943759;28;19930;-85
2021/06/27 12:57:02;;;;;;;;;;;28.90;86.70;;;;;;4923501;29;20456;-83
2021/06/27 12:59:35;;;;;;;;;;;29.10;84.70;;;;;;4869589;28;20018;-85
2021/06/27 13:02:02;;;;;;;;;;;29.50;79.40;;;;;;4909876;29;19927;-85
2021/06/27 13:04:46;;;;;;;;;;;29.70;73.90;;;;;;4927508;29;19972;-83
2021/06/27 13:07:14;;;;;;;;;;;29.80;76.50;;;;;;4928934;29;20013;-83
2021/06/27 13:10:12;;;;;;;;;;;29.80;74.80;;;;;;4920976;29;19927;-83
2021/06/27 13:12:45;;;;;;;;;;;29.90;75.60;;;;;;4921591;29;19933;-83
2021/06/27 13:15:16;;;;;;;;;;;30.00;73.60;;;;;;4921758;29;19998;-82
2021/06/27 13:17:45;;;;;;;;;;;30.00;71.80;;;;;;4954749;29;20054;-84
2021/06/27 13:20:18;;;;;;;;;;;30.00;72.80;;;;;;4954784;29;20468;-83
2021/06/27 13:22:54;;;;;;;;;;;30.20;76.10;;;;;;4922221;29;19931;-83
2021/06/27 13:25:31;;;;;;;;;;;30.10;72.80;;;;;;4938055;29;19985;-83
2021/06/27 13:27:57;;;;;;;;;;;30.10;72.60;;;;;;4922898;28;20012;-83
2021/06/27 13:30:24;;;;;;;;;;;30.20;80.20;;;;;;4921707;29;20013;-83
2021/06/27 13:33:09;;;;;;;;;;;30.30;76.50;;;;;;4922242;28;19973;-83
2021/06/27 13:35:42;;;;;;;;;;;30.50;75.30;;;;;;4927786;29;20104;-80
2021/06/27 13:38:13;;;;;;;;;;;30.50;76.00;;;;;;4929874;29;19982;-80
2021/06/27 13:40:43;;;;;;;;;;;30.70;72.50;;;;;;4945475;29;19930;-79
2021/06/27 13:43:10;;;;;;;;;;;30.70;75.20;;;;;;4929524;29;19937;-78
2021/06/27 13:45:42;;;;;;;;;;;30.90;70.00;;;;;;4931350;29;19927;-81
2021/06/27 13:48:08;;;;;;;;;;;31.00;73.30;;;;;;4945881;29;19969;-84
2021/06/27 13:50:35;;;;;;;;;;;31.00;70.20;;;;;;4945238;29;19927;-81
2021/06/27 13:53:02;;;;;;;;;;;31.10;66.00;;;;;;4959889;28;19988;-81
2021/06/27 13:55:29;;;;;;;;;;;31.20;67.50;;;;;;4927049;29;19976;-82
2021/06/27 13:57:56;;;;;;;;;;;31.40;68.40;;;;;;4924923;29;19954;-83
2021/06/27 14:00:24;;;;;;;;;;;31.50;68.00;;;;;;4940751;29;20025;-85
2021/06/27 14:02:52;;;;;;;;;;;31.70;67.30;;;;;;4957382;29;19931;-83
2021/06/27 14:05:20;;;;;;;;;;;31.70;66.60;;;;;;4940933;29;20380;-85
2021/06/27 14:07:47;;;;;;;;;;;31.60;63.50;;;;;;4925036;29;19933;-83
2021/06/27 14:10:20;;;;;;;;;;;31.40;65.40;;;;;;4925598;29;19927;-83
2021/06/27 14:12:47;;;;;;;;;;;31.10;65.20;;;;;;4939971;28;19958;-83
2021/06/27 14:15:15;;;;;;;;;;;30.80;66.10;;;;;;4940728;29;20301;-84
2021/06/27 14:17:42;;;;;;;;;;;30.50;67.30;;;;;;4924798;29;20126;-82
2021/06/27 14:20:11;;;;;;;;;;;30.30;64.90;;;;;;4941466;29;20029;-84
2021/06/27 14:22:38;;;;;;;;;;;30.20;65.40;;;;;;4941445;29;20397;-85
2021/06/27 14:25:10;;;;;;;;;;;30.30;65.20;;;;;;4926270;29;20034;-85
2021/06/27 14:27:37;;;;;;;;;;;30.50;67.30;;;;;;4925347;29;19926;-85
2021/06/27 14:30:10;;;;;;;;;;;30.80;65.70;;;;;;4925784;29;19926;-87
2021/06/27 14:32:41;;;;;;;;;;;31.20;60.50;;;;;;4925185;29;19926;-85
2021/06/27 14:35:10;;;;;;;;;;;31.50;58.30;;;;;;4940737;29;19933;-85
2021/06/27 14:37:42;;;;;;;;;;;31.80;61.00;;;;;;4925806;28;19926;-85
2021/06/27 14:40:15;;;;;;;;;;;32.20;58.20;;;;;;4941810;29;19926;-88
2021/06/27 14:42:47;;;;;;;;;;;32.30;58.00;;;;;;4925455;29;19948;-85
2021/06/27 14:45:15;;;;;;;;;;;32.50;59.50;;;;;;4940400;29;19989;-85
2021/06/27 14:47:47;;;;;;;;;;;32.50;57.80;;;;;;4925468;29;19948;-85
2021/06/27 14:50:14;;;;;;;;;;;32.40;59.60;;;;;;4924188;29;20365;-85
2021/06/27 14:52:40;;;;;;;;;;;32.20;61.60;;;;;;4924477;29;19935;-86
2021/06/27 14:55:12;;;;;;;;;;;32.30;62.80;;;;;;4940655;29;19969;-85
2021/06/27 14:57:45;;;;;;;;;;;32.50;59.40;;;;;;4957633;29;19927;-85
2021/06/27 15:00:17;;;;;;;;;;;32.70;59.70;;;;;;4925321;29;19926;-87
2021/06/27 15:02:48;;;;;;;;;;;32.70;62.60;;;;;;4924686;29;19926;-85
2021/06/27 15:05:15;;;;;;;;;;;32.60;58.80;;;;;;4940356;29;20009;-86
2021/06/27 15:07:42;;;;;;;;;;;32.60;59.60;;;;;;4940264;29;20025;-85
2021/06/27 15:10:09;;;;;;;;;;;32.60;60.20;;;;;;4940008;29;19926;-85
2021/06/27 15:12:35;;;;;;;;;;;32.60;65.00;;;;;;4939646;29;19997;-88
2021/06/27 15:15:07;;;;;;;;;;;32.60;60.10;;;;;;4924612;29;20460;-85
2021/06/27 15:17:34;;;;;;;;;;;32.70;60.80;;;;;;4921879;29;20022;-86
2021/06/27 15:20:02;;;;;;;;;;;32.70;58.10;;;;;;4918607;28;19950;-84
2021/06/27 15:22:29;;;;;;;;;;;33.00;58.60;;;;;;4940974;29;20050;-84
2021/06/27 15:25:02;;;;;;;;;;;33.20;58.70;;;;;;4941098;29;19930;-85
2021/06/27 15:27:29;;;;;;;;;;;33.60;58.30;;;;;;4940380;29;20472;-85
2021/06/27 15:29:56;;;;;;;;;;;34.00;56.80;;;;;;4923979;29;19968;-85
2021/06/27 15:32:24;;;;;;;;;;;34.20;56.00;;;;;;4948227;28;19950;-85
2021/06/27 15:34:51;;;;;;;;;;;34.20;56.80;;;;;;4959533;28;19937;-85
2021/06/27 15:37:18;;;;;;;;;;;34.30;54.80;;;;;;4943540;28;19973;-85
2021/06/27 15:39:45;;;;;;;;;;;34.60;55.90;;;;;;4943453;28;20037;-85
2021/06/27 15:42:11;;;;;;;;;;;34.90;54.40;;;;;;4958736;28;20389;-85
2021/06/27 15:44:38;;;;;;;;;;;35.10;57.40;;;;;;4943360;28;19969;-85
2021/06/27 15:47:05;;;;;;;;;;;35.00;56.20;;;;;;4959071;28;19973;-85
2021/06/27 15:49:34;;;;;;;;;;;34.90;54.70;;;;;;4943551;28;19958;-85
2021/06/27 15:52:06;;;;;;;;;;;35.10;53.00;;;;;;4943255;28;19933;-86
2021/06/27 15:54:38;;;;;;;;;;;35.30;53.00;;;;;;4958873;28;19934;-84
2021/06/27 15:57:04;;;;;;;;;;;35.30;53.40;;;;;;4941899;28;20362;-87
2021/06/27 15:59:32;;;;;;;;;;;35.40;54.40;;;;;;4939980;29;20017;-85
2021/06/27 16:02:01;;;;;;;;;;;35.50;53.00;;;;;;4940278;29;19933;-85
2021/06/27 16:04:27;;;;;;;;;;;35.50;51.30;;;;;;4924687;28;19984;-86